Argyle, Illinois
Current Conditions -  °F | °C
As of 11:54 AM on Saturday 25 Oct 2014 (Local Time) from KRFD Reporting Station
Clear Clear  
Wind Chill: 21°   Ceiling: Unl
Heat Index: 21°   Visibility: 10mi
Dew Point:   Wind: 12mph
Humidity: 35%   Direction: 320°NW
Pressure: 29.99"   Gusts: NA
Location:  42.3911°N, 88.9094°W
Report Text: KRFD 251654Z 32010KT 10SM CLR 21/04 A2999 RMK AO2 SLP156 T02060044
Loading
Personal Weather Stations






























Interactive Weather Map
Tropical Storm Tracking
New forecast layout! Learn more

10-Day Weather Forecast

Advertisements
Track Severe Weather on mobile